• Join FlightAware (Why Join?)
  • Login
  • US Flag 
07:31PM EDT


 

Airport Tracker/Info


-or-


 

Live Flight TrackerFlight Track Log ✈ ASQ5963 ✈ 11-Sep-2013 ✈ KALB - KEWR

Flight Track Log - Related Links

Times and Time Zones

All times are in EDT time to prevent confusion due to time zone crossing. See the ASQ5963 flight status page for this flight to view local times or setup timezone preferences in your user account.

Time Position Orientation Groundspeed Altitude Reporting Facility
EDT Latitude Longitude Course Direction KTS MPH feet Rate Location/Type
06:01AM 42.7278 -73.8081 200° South 165 190 1,400  Level Boston Center
06:01AM 42.7256 -73.8053 137° Southeast 165 190 1,600 1,860 Climbing Boston Center
06:02AM 42.6442 -73.8317 193° South 232 267 4,200 2,280 Climbing Boston Center
06:03AM 42.5728 -73.8611 197° South 255 293 7,200 2,340 Climbing Boston Center
06:04AM 42.5043 -73.9043 197° South  Level FlightAware Approximate
06:04AM 42.5142 -73.8933 202° Southwest 260 299 9,100  Level Boston Center
06:05AM 42.4431 -73.9298 197° South  Level FlightAware Approximate
06:05AM 42.4344 -73.9311 199° South 271 312 12,000  Level Boston Center
06:06AM 42.3794 -73.9387 200° South  Level Estimated
06:06AM 42.3694 -73.9603 198° South 271 312 13,900  Level Boston Center
06:07AM 42.2853 -74.0089 203° Southwest 287 330 15,900 1,020 Climbing Boston Center
06:08AM 42.2078 -74.0433 198° South 320 368 16,000  Climbing Boston Center
06:09AM 42.1111 -74.0886 199° South 362 417 16,000  Level Boston Center
06:10AM 42.0125 -74.1333 199° South 370 426 16,100 -300 Climbing Boston Center
06:11AM 41.9078 -74.1808 199° South 365 420 15,500 -1,020 Descending Boston Center
06:12AM 41.8281 -74.2119 196° South 347 399 14,100 -1,560 Descending Boston Center
06:13AM 41.7439 -74.2514 199° South 318 366 12,400 -1,500 Descending Boston Center
06:14AM 41.6747 -74.2772 196° South 291 335 11,200 -1,380 Descending Boston Center
06:15AM 41.5950 -74.3139 199° South 285 328 9,700 -1,440 Descending Boston Center
06:16AM 41.5278 -74.3422 198° South 285 328 8,400 -780 Descending Boston Center
06:19AM 41.3500 -74.4000 194° South 269 310 7,100 -600 Descending New York TRACON
06:20AM 41.2833 -74.3667 159° South 284 327 6,500 -720 Descending New York TRACON
06:21AM 41.2167 -74.3167 151° Southeast 277 319 5,800 -660 Descending New York TRACON
06:22AM 41.1500 -74.2667 151° Southeast 270 311 5,300 -480 Descending New York TRACON
06:23AM 41.0833 -74.2167 151° Southeast 284 327 4,900 -480 Descending New York TRACON
06:24AM 41.0167 -74.1667 150° Southeast 275 316 4,300 -480 Descending New York TRACON
06:24AM 40.9667 -74.1333 153° Southeast 279 321 4,100 -420 Descending New York TRACON
06:25AM 40.9000 -74.1000 159° South 276 318 3,600 -720 Descending New York TRACON
06:26AM 40.8167 -74.0833 171° South 273 314 2,800 -1,080 Descending New York TRACON
06:27AM 40.7667 -74.1167 207° Southwest 225 259 1,500 -1,080 Descending New York TRACON
06:28AM 40.7167 -74.1500 207° Southwest 134 154 800 -780 Descending New York TRACON